createdAt,value
2017-12-26T00:01:35.140Z,3.43
2017-12-26T00:04:04.324Z,2.97
2017-12-26T00:06:35.754Z,3.30
2017-12-26T00:09:04.271Z,3.53
2017-12-26T00:11:32.657Z,3.23
2017-12-26T00:14:01.090Z,3.17
2017-12-26T00:16:30.443Z,4.70
2017-12-26T00:18:58.953Z,5.17
2017-12-26T00:21:27.434Z,7.87
2017-12-26T00:23:56.588Z,6.80
2017-12-26T00:26:25.004Z,4.27
2017-12-26T00:28:53.429Z,4.23
2017-12-26T00:31:21.837Z,3.50
2017-12-26T00:33:50.277Z,3.70
2017-12-26T00:36:19.488Z,13.10
2017-12-26T00:38:47.890Z,7.90
2017-12-26T00:41:16.330Z,4.83
2017-12-26T00:43:45.532Z,6.10
2017-12-26T00:46:13.953Z,4.70
2017-12-26T00:48:43.156Z,4.40
2017-12-26T00:51:11.590Z,7.03
2017-12-26T00:53:39.987Z,4.80
2017-12-26T00:56:09.174Z,5.90
2017-12-26T00:58:37.634Z,4.83
2017-12-26T01:01:06.123Z,6.43
2017-12-26T01:03:34.421Z,4.17
2017-12-26T01:06:02.987Z,5.23
2017-12-26T01:08:31.418Z,4.43
2017-12-26T01:10:59.799Z,4.50
2017-12-26T01:13:28.213Z,4.60
2017-12-26T01:15:56.645Z,3.83
2017-12-26T01:18:25.014Z,5.03
2017-12-26T01:20:53.435Z,4.67
2017-12-26T01:23:21.851Z,8.37
2017-12-26T01:25:50.273Z,4.67
2017-12-26T01:28:18.701Z,4.67
2017-12-26T01:30:47.222Z,3.93
2017-12-26T01:33:15.690Z,3.43
2017-12-26T01:35:44.084Z,3.97
2017-12-26T01:38:12.479Z,4.60
2017-12-26T01:40:40.909Z,4.37
2017-12-26T01:43:09.290Z,4.33
2017-12-26T01:45:37.706Z,5.43
2017-12-26T01:48:06.116Z,3.97
2017-12-26T01:50:34.576Z,4.30
2017-12-26T01:53:02.967Z,3.60
2017-12-26T01:55:32.137Z,4.30
2017-12-26T01:58:00.553Z,4.70
2017-12-26T02:00:29.739Z,4.23
2017-12-26T02:02:58.148Z,4.90
2017-12-26T02:05:26.620Z,3.80
2017-12-26T02:07:55.794Z,4.20
2017-12-26T02:10:26.093Z,4.00
2017-12-26T02:12:54.944Z,4.07
2017-12-26T02:15:23.371Z,4.83
2017-12-26T02:17:51.792Z,5.40
2017-12-26T02:20:20.189Z,3.43
2017-12-26T02:22:48.591Z,4.20
2017-12-26T02:25:17.018Z,4.50
2017-12-26T02:27:46.251Z,4.57
2017-12-26T02:30:15.421Z,4.87
2017-12-26T02:32:43.828Z,3.90
2017-12-26T02:35:12.257Z,4.13
2017-12-26T02:37:40.667Z,3.90
2017-12-26T02:40:08.369Z,4.53
2017-12-26T02:42:36.785Z,3.93
2017-12-26T02:45:05.952Z,3.70
2017-12-26T02:47:34.381Z,3.97
2017-12-26T02:50:02.807Z,4.97
2017-12-26T02:52:31.985Z,5.40
2017-12-26T02:55:00.390Z,5.53
2017-12-26T02:57:28.767Z,5.93
2017-12-26T02:59:57.197Z,6.07
2017-12-26T03:02:25.602Z,6.97
2017-12-26T03:04:54.015Z,7.40
2017-12-26T03:07:22.473Z,7.10
2017-12-26T03:09:51.644Z,7.70
2017-12-26T03:12:20.034Z,8.40
2017-12-26T03:14:48.464Z,8.50
2017-12-26T03:17:16.887Z,10.60
2017-12-26T03:19:46.077Z,8.40
2017-12-26T03:22:14.470Z,8.73
2017-12-26T03:24:42.922Z,7.67
2017-12-26T03:27:11.356Z,8.23
2017-12-26T03:29:39.724Z,8.87
2017-12-26T03:32:08.158Z,7.97
2017-12-26T03:34:36.745Z,8.00
2017-12-26T03:37:06.801Z,7.47
2017-12-26T03:39:35.986Z,8.77
2017-12-26T03:42:04.085Z,7.83
2017-12-26T03:44:32.536Z,6.30
2017-12-26T03:47:01.115Z,6.17
2017-12-26T03:49:29.545Z,9.07
2017-12-26T03:51:59.426Z,6.13
2017-12-26T03:54:27.855Z,6.83
2017-12-26T03:56:56.238Z,7.53
2017-12-26T03:59:24.623Z,7.53
2017-12-26T04:01:53.030Z,7.33
2017-12-26T04:04:21.438Z,7.63
2017-12-26T04:06:49.817Z,8.43
2017-12-26T04:09:19.002Z,6.00
2017-12-26T04:11:47.424Z,6.93
2017-12-26T04:14:15.908Z,7.63
2017-12-26T04:16:44.341Z,8.23
2017-12-26T04:19:12.749Z,9.73
2017-12-26T04:21:41.199Z,9.57
2017-12-26T04:24:09.599Z,11.27
2017-12-26T04:26:38.031Z,8.93
2017-12-26T04:29:06.457Z,10.33
2017-12-26T04:31:34.880Z,9.00
2017-12-26T04:34:03.296Z,8.30
2017-12-26T04:36:32.524Z,9.47
2017-12-26T04:39:00.920Z,9.70
2017-12-26T04:41:29.295Z,9.30
2017-12-26T04:43:57.747Z,9.20
2017-12-26T04:46:26.933Z,8.83
2017-12-26T04:48:55.358Z,9.13
2017-12-26T04:51:24.543Z,9.90
2017-12-26T04:53:52.945Z,10.03
2017-12-26T04:56:21.423Z,8.93
2017-12-26T04:58:49.881Z,8.70
2017-12-26T05:01:18.301Z,10.37
2017-12-26T05:03:46.708Z,9.53
2017-12-26T05:06:15.180Z,9.53
2017-12-26T05:08:43.586Z,8.47
2017-12-26T05:11:11.986Z,8.80
2017-12-26T05:13:40.398Z,9.60
2017-12-26T05:16:08.794Z,9.10
2017-12-26T05:18:37.189Z,9.53
2017-12-26T05:21:05.594Z,12.00
2017-12-26T05:23:34.015Z,11.10
2017-12-26T05:26:02.429Z,12.07
2017-12-26T05:28:30.801Z,10.97
2017-12-26T05:30:59.970Z,11.67
2017-12-26T05:33:28.424Z,12.17
2017-12-26T05:35:56.803Z,11.17
2017-12-26T05:38:25.971Z,14.63
2017-12-26T05:40:54.401Z,11.53
2017-12-26T05:43:22.836Z,11.97
2017-12-26T05:45:51.991Z,16.60
2017-12-26T05:48:20.403Z,13.37
2017-12-26T05:50:48.825Z,12.80
2017-12-26T05:53:17.305Z,14.70
2017-12-26T05:55:45.743Z,14.00
2017-12-26T05:58:14.155Z,12.90
2017-12-26T06:00:42.570Z,13.33
2017-12-26T06:03:10.960Z,15.70
2017-12-26T06:05:39.327Z,12.57
2017-12-26T06:08:07.716Z,13.33
2017-12-26T06:10:36.942Z,17.60
2017-12-26T06:13:06.155Z,16.63
2017-12-26T06:15:35.306Z,14.10
2017-12-26T06:18:03.701Z,14.00
2017-12-26T06:20:32.151Z,15.20
2017-12-26T06:23:00.549Z,13.20
2017-12-26T06:25:28.961Z,14.30
2017-12-26T06:27:57.390Z,15.57
2017-12-26T06:30:25.795Z,15.00
2017-12-26T06:32:54.240Z,13.83
2017-12-26T06:35:22.667Z,14.50
2017-12-26T06:37:51.101Z,13.33
2017-12-26T06:40:19.514Z,13.57
2017-12-26T06:42:47.917Z,10.97
2017-12-26T06:45:16.477Z,13.70
2017-12-26T06:47:44.888Z,11.37
2017-12-26T06:50:13.299Z,12.40
2017-12-26T06:52:41.714Z,12.10
2017-12-26T06:55:10.139Z,10.93
2017-12-26T06:57:43.125Z,20.23
2017-12-26T07:00:11.680Z,44.03
2017-12-26T07:02:40.865Z,16.73
2017-12-26T07:05:09.309Z,24.87
2017-12-26T07:07:37.737Z,44.13
2017-12-26T07:10:06.225Z,28.97
2017-12-26T07:24:09.795Z,23.50
2017-12-26T07:26:38.170Z,21.70
2017-12-26T07:29:06.518Z,12.33
2017-12-26T07:31:35.653Z,32.40
2017-12-26T07:34:03.985Z,14.30
2017-12-26T07:36:33.100Z,11.53
2017-12-26T07:39:01.456Z,15.40
2017-12-26T07:41:30.580Z,21.40
2017-12-26T07:43:58.940Z,12.00
2017-12-26T07:46:28.060Z,15.37
2017-12-26T07:48:56.391Z,17.33
2017-12-26T07:51:24.804Z,11.30
2017-12-26T07:53:53.703Z,8.87
2017-12-26T07:56:22.938Z,9.67
2017-12-26T07:58:52.258Z,10.67
2017-12-26T08:01:20.941Z,8.17
2017-12-26T08:03:49.302Z,8.77
2017-12-26T08:06:17.632Z,7.33
2017-12-26T08:08:45.960Z,6.37
2017-12-26T08:11:14.373Z,6.90
2017-12-26T08:13:42.724Z,8.73
2017-12-26T08:16:11.093Z,7.23
2017-12-26T08:18:39.436Z,7.40
2017-12-26T08:21:07.790Z,7.67
2017-12-26T08:23:36.138Z,7.23
2017-12-26T08:26:05.237Z,6.17
2017-12-26T08:28:34.369Z,7.10
2017-12-26T08:31:02.710Z,7.60
2017-12-26T08:33:31.822Z,6.63
2017-12-26T08:36:00.170Z,9.03
2017-12-26T08:38:29.293Z,8.90
2017-12-26T08:40:57.646Z,8.77
2017-12-26T08:43:26.766Z,9.47
2017-12-26T08:45:55.106Z,6.90
2017-12-26T08:48:23.952Z,8.27
2017-12-26T08:50:52.297Z,7.00
2017-12-26T08:53:20.927Z,9.20
2017-12-26T08:55:49.292Z,5.93
2017-12-26T08:58:17.629Z,7.23
2017-12-26T09:00:46.026Z,8.70
2017-12-26T09:03:14.383Z,6.93
2017-12-26T09:05:42.786Z,6.47
2017-12-26T09:08:11.133Z,8.53
2017-12-26T09:10:39.507Z,8.13
2017-12-26T09:13:08.601Z,7.97
2017-12-26T09:15:37.696Z,7.20
2017-12-26T09:18:06.912Z,7.23
2017-12-26T09:20:35.269Z,5.80
2017-12-26T09:23:04.353Z,6.13
2017-12-26T09:25:33.451Z,6.03
2017-12-26T09:28:02.585Z,7.17
2017-12-26T09:30:30.915Z,7.87
2017-12-26T09:33:00.016Z,5.80
2017-12-26T09:35:29.135Z,6.80
2017-12-26T09:37:57.478Z,5.77
2017-12-26T09:40:26.598Z,6.27
2017-12-26T09:42:54.917Z,5.43
2017-12-26T09:45:24.059Z,6.50
2017-12-26T09:47:53.607Z,7.37
2017-12-26T09:50:21.945Z,6.77
2017-12-26T09:52:50.292Z,4.57
2017-12-26T09:55:18.638Z,7.83
2017-12-26T09:57:47.116Z,7.07
2017-12-26T10:00:15.473Z,3.87
2017-12-26T10:02:43.800Z,7.93
2017-12-26T10:05:12.141Z,5.93
2017-12-26T10:07:40.497Z,7.83
2017-12-26T10:10:08.826Z,7.50
2017-12-26T10:12:37.153Z,6.53
2017-12-26T10:15:05.505Z,6.10
2017-12-26T10:17:33.973Z,5.43
2017-12-26T10:20:03.105Z,7.23
2017-12-26T10:22:31.440Z,8.80
2017-12-26T10:25:00.687Z,5.57
2017-12-26T10:27:29.047Z,5.97
2017-12-26T10:29:57.380Z,6.80
2017-12-26T10:32:25.803Z,5.57
2017-12-26T10:34:54.154Z,6.63
2017-12-26T10:37:24.151Z,5.17
2017-12-26T10:39:52.490Z,6.00
2017-12-26T10:42:20.902Z,6.03
2017-12-26T10:44:49.241Z,6.67
2017-12-26T10:47:17.590Z,12.20
2017-12-26T10:49:45.924Z,7.23
2017-12-26T10:52:14.267Z,5.50
2017-12-26T10:54:42.601Z,5.63
2017-12-26T10:57:11.727Z,5.50
2017-12-26T10:59:40.070Z,4.60
2017-12-26T11:02:10.222Z,3.90
2017-12-26T11:04:38.568Z,3.80
2017-12-26T11:07:07.683Z,4.60
2017-12-26T11:09:36.007Z,5.07
2017-12-26T11:12:05.320Z,7.37
2017-12-26T11:14:33.696Z,3.23
2017-12-26T11:17:02.046Z,2.93
2017-12-26T11:19:30.373Z,3.87
2017-12-26T11:21:58.733Z,11.10
2017-12-26T11:24:27.831Z,9.13
2017-12-26T11:26:56.997Z,7.43
2017-12-26T11:29:25.341Z,7.00
2017-12-26T11:31:56.694Z,6.40
2017-12-26T11:34:25.942Z,6.53
2017-12-26T11:36:54.320Z,3.80
2017-12-26T11:39:24.129Z,3.60
2017-12-26T11:41:52.506Z,2.23
2017-12-26T11:44:21.025Z,3.50
2017-12-26T11:46:49.417Z,4.87
2017-12-26T11:49:17.777Z,6.57
2017-12-26T11:51:46.251Z,3.97
2017-12-26T11:54:14.641Z,15.20
2017-12-26T11:56:43.164Z,7.93
2017-12-26T11:59:11.513Z,5.80
2017-12-26T12:01:39.855Z,5.07
2017-12-26T12:04:08.175Z,6.00
2017-12-26T12:06:37.302Z,4.27
2017-12-26T12:09:06.396Z,4.00
2017-12-26T12:11:35.546Z,3.73
2017-12-26T12:14:04.825Z,4.10
2017-12-26T12:16:33.228Z,2.77
2017-12-26T12:19:02.362Z,2.77
2017-12-26T12:21:31.465Z,1.60
2017-12-26T12:24:00.570Z,2.37
2017-12-26T12:26:28.936Z,1.10
2017-12-26T12:28:58.036Z,1.20
2017-12-26T12:31:27.172Z,1.33
2017-12-26T12:33:55.522Z,3.00
2017-12-26T12:36:23.877Z,1.20
2017-12-26T12:38:53.874Z,0.90
2017-12-26T12:41:22.395Z,1.20
2017-12-26T12:43:51.112Z,0.70
2017-12-26T12:46:19.456Z,1.10
2017-12-26T12:48:47.804Z,1.00
2017-12-26T12:51:16.900Z,1.20
2017-12-26T12:53:45.452Z,1.00
2017-12-26T12:56:13.841Z,1.17
2017-12-26T12:58:42.198Z,0.80
2017-12-26T13:01:10.540Z,0.80
2017-12-26T13:03:38.883Z,2.30
2017-12-26T13:06:07.994Z,1.00
2017-12-26T13:08:36.321Z,0.70
2017-12-26T13:11:04.706Z,0.80
2017-12-26T13:13:33.061Z,1.20
2017-12-26T13:16:01.420Z,0.80
2017-12-26T13:18:29.772Z,1.27
2017-12-26T13:20:58.125Z,1.90
2017-12-26T13:23:26.465Z,0.77
2017-12-26T13:25:54.813Z,0.80
2017-12-26T13:28:23.154Z,1.67
2017-12-26T13:30:51.783Z,0.73
2017-12-26T13:33:20.125Z,0.93
2017-12-26T13:35:49.296Z,1.73
2017-12-26T13:38:17.637Z,1.00
2017-12-26T13:40:45.989Z,1.47
2017-12-26T13:43:14.320Z,2.43
2017-12-26T13:45:42.674Z,2.20
2017-12-26T13:48:11.003Z,1.50
2017-12-26T13:50:40.179Z,6.73
2017-12-26T13:53:08.528Z,29.30
2017-12-26T13:55:36.872Z,10.57
2017-12-26T13:58:05.223Z,17.17
2017-12-26T14:00:34.404Z,9.53
2017-12-26T14:03:02.740Z,7.47
2017-12-26T14:05:31.081Z,7.77
2017-12-26T14:08:00.169Z,4.80
2017-12-26T14:10:29.282Z,3.77
2017-12-26T14:12:57.624Z,3.60
2017-12-26T14:15:26.005Z,3.53
2017-12-26T14:17:55.105Z,7.93
2017-12-26T14:20:24.399Z,7.67
2017-12-26T14:22:53.426Z,8.03
2017-12-26T14:25:22.853Z,7.67
2017-12-26T14:27:51.109Z,2.97
2017-12-26T14:30:19.529Z,2.20
2017-12-26T14:32:47.890Z,4.27
2017-12-26T14:35:16.235Z,2.53
2017-12-26T14:37:44.571Z,2.03
2017-12-26T14:40:12.944Z,1.60
2017-12-26T14:42:41.288Z,1.00
2017-12-26T14:45:09.521Z,1.07
2017-12-26T14:47:38.632Z,1.07
2017-12-26T14:50:07.037Z,3.70
2017-12-26T14:52:35.396Z,1.90
2017-12-26T14:55:03.397Z,0.80
2017-12-26T14:57:31.747Z,1.20
2017-12-26T15:00:00.149Z,1.10
2017-12-26T15:02:28.547Z,1.10
2017-12-26T15:04:57.014Z,0.70
2017-12-26T15:07:25.336Z,0.87
2017-12-26T15:09:53.868Z,0.70
2017-12-26T15:12:22.193Z,3.40
2017-12-26T15:14:50.638Z,1.47
2017-12-26T15:17:19.752Z,1.20
2017-12-26T15:19:48.918Z,1.07
2017-12-26T15:22:17.085Z,1.00
2017-12-26T15:24:45.284Z,1.03
2017-12-26T15:27:14.206Z,2.27
2017-12-26T15:29:42.554Z,1.20
2017-12-26T15:32:11.655Z,1.03
2017-12-26T15:34:40.817Z,0.83
2017-12-26T15:37:09.182Z,0.80
2017-12-26T15:39:37.558Z,1.10
2017-12-26T15:42:05.902Z,0.80
2017-12-26T15:44:34.239Z,1.57
2017-12-26T15:47:03.423Z,0.83
2017-12-26T15:49:31.765Z,1.97
2017-12-26T15:52:00.190Z,2.07
2017-12-26T15:54:29.308Z,2.60
2017-12-26T15:56:57.652Z,3.30
2017-12-26T15:59:26.021Z,1.57
2017-12-26T16:01:54.382Z,2.57
2017-12-26T16:04:23.312Z,1.30
2017-12-26T16:06:52.351Z,2.93
2017-12-26T16:09:20.702Z,4.53
2017-12-26T16:11:49.042Z,6.97
2017-12-26T16:14:17.387Z,6.07
2017-12-26T16:16:45.753Z,3.67
2017-12-26T16:19:14.191Z,3.63
2017-12-26T16:21:42.717Z,3.73
2017-12-26T16:24:12.123Z,7.07
2017-12-26T16:26:40.483Z,5.83
2017-12-26T16:29:10.036Z,8.33
2017-12-26T16:31:38.367Z,6.37
2017-12-26T16:34:06.742Z,10.77
2017-12-26T16:36:35.077Z,7.50
2017-12-26T16:39:03.511Z,8.10
2017-12-26T16:41:31.861Z,9.83
2017-12-26T16:44:00.281Z,13.30
2017-12-26T16:46:28.634Z,13.30
2017-12-26T16:48:57.021Z,12.23
2017-12-26T16:51:26.106Z,7.87
2017-12-26T16:53:54.517Z,7.30
2017-12-26T16:56:23.491Z,6.57
2017-12-26T16:58:52.529Z,5.63
2017-12-26T17:01:22.010Z,8.77
2017-12-26T17:03:50.377Z,9.47
2017-12-26T17:06:18.734Z,5.87
2017-12-26T17:08:47.133Z,5.50
2017-12-26T17:11:15.684Z,5.20
2017-12-26T17:13:44.077Z,7.03
2017-12-26T17:16:12.420Z,3.13
2017-12-26T17:18:40.760Z,1.90
2017-12-26T17:21:09.883Z,2.67
2017-12-26T17:23:38.286Z,3.33
2017-12-26T17:26:06.634Z,4.23
2017-12-26T17:28:34.989Z,3.60
2017-12-26T17:31:04.093Z,3.50
2017-12-26T17:33:32.547Z,3.90
2017-12-26T17:36:00.877Z,3.53
2017-12-26T17:38:29.238Z,4.23
2017-12-26T17:40:57.587Z,3.97
2017-12-26T17:43:26.775Z,3.83
2017-12-26T17:45:55.114Z,4.07
2017-12-26T17:48:23.864Z,2.47
2017-12-26T17:50:52.196Z,4.70
2017-12-26T17:53:20.577Z,3.60
2017-12-26T17:55:48.927Z,3.70
2017-12-26T17:58:17.267Z,2.53
2017-12-26T18:00:45.605Z,4.43
2017-12-26T18:03:13.976Z,2.53
2017-12-26T18:05:42.324Z,4.23
2017-12-26T18:08:10.753Z,2.67
2017-12-26T18:10:39.066Z,2.13
2017-12-26T18:13:07.498Z,3.07
2017-12-26T18:15:35.850Z,2.37
2017-12-26T18:18:03.917Z,2.30
2017-12-26T18:20:32.258Z,1.60
2017-12-26T18:23:00.698Z,2.40
2017-12-26T18:25:29.048Z,1.50
2017-12-26T18:27:57.439Z,1.47
2017-12-26T18:30:25.795Z,1.53
2017-12-26T18:32:54.204Z,1.37
2017-12-26T18:35:22.695Z,1.43
2017-12-26T18:37:51.407Z,1.17
2017-12-26T18:40:19.827Z,1.50
2017-12-26T18:42:47.992Z,2.20
2017-12-26T18:45:16.332Z,1.50
2017-12-26T18:47:44.685Z,2.27
2017-12-26T18:50:13.790Z,1.53
2017-12-26T18:52:42.880Z,2.27
2017-12-26T18:55:12.006Z,2.43
2017-12-26T18:57:40.344Z,3.00
2017-12-26T19:00:09.447Z,4.63
2017-12-26T19:02:38.595Z,3.13
2017-12-26T19:05:07.708Z,2.60
2017-12-26T19:07:36.050Z,2.40
2017-12-26T19:10:04.413Z,2.47
2017-12-26T19:12:32.748Z,2.87
2017-12-26T19:15:01.084Z,2.10
2017-12-26T19:17:29.445Z,1.97
2017-12-26T19:19:57.785Z,1.50
2017-12-26T19:22:26.329Z,1.63
2017-12-26T19:24:54.713Z,3.67
2017-12-26T19:27:23.856Z,3.50
2017-12-26T19:29:53.724Z,1.73
2017-12-26T19:32:22.691Z,2.70
2017-12-26T19:34:51.960Z,1.63
2017-12-26T19:37:20.307Z,3.40
2017-12-26T19:39:48.783Z,3.07
2017-12-26T19:42:17.137Z,3.03
2017-12-26T19:44:45.512Z,3.07
2017-12-26T19:47:13.844Z,4.37
2017-12-26T19:49:42.969Z,2.83
2017-12-26T19:52:11.317Z,3.10
2017-12-26T19:54:39.669Z,5.00
2017-12-26T19:57:08.013Z,3.13
2017-12-26T19:59:36.420Z,1.67
2017-12-26T20:02:04.800Z,3.37
2017-12-26T20:04:33.159Z,2.07
2017-12-26T20:07:01.524Z,2.23
2017-12-26T20:09:29.910Z,2.60
2017-12-26T20:11:58.255Z,2.93
2017-12-26T20:14:26.643Z,2.13
2017-12-26T20:16:54.875Z,2.60
2017-12-26T20:19:24.143Z,1.67
2017-12-26T20:21:53.394Z,3.47
2017-12-26T20:24:22.828Z,2.40
2017-12-26T20:26:51.312Z,2.47
2017-12-26T20:29:20.650Z,2.33
2017-12-26T20:31:49.771Z,2.30
2017-12-26T20:34:17.863Z,1.73
2017-12-26T20:36:46.218Z,2.10
2017-12-26T20:39:14.561Z,3.83
2017-12-26T20:41:43.699Z,8.13
2017-12-26T20:44:12.138Z,9.97
2017-12-26T20:46:41.294Z,9.63
2017-12-26T20:49:10.450Z,5.03
2017-12-26T20:51:38.832Z,6.90
2017-12-26T20:54:07.175Z,5.40
2017-12-26T20:56:35.508Z,3.67
2017-12-26T20:59:03.929Z,3.13
2017-12-26T21:01:33.032Z,3.33
2017-12-26T21:04:02.234Z,1.90
2017-12-26T21:06:31.338Z,2.60
2017-12-26T21:08:59.784Z,3.80
2017-12-26T21:14:21.417Z,2.50
2017-12-26T21:16:49.773Z,4.70
2017-12-26T21:19:18.169Z,2.17
2017-12-26T21:21:46.515Z,2.00
2017-12-26T21:24:14.857Z,3.23
2017-12-26T21:26:43.982Z,2.80
2017-12-26T21:29:12.418Z,4.17
2017-12-26T21:31:41.524Z,2.97
2017-12-26T21:34:10.032Z,3.37
2017-12-26T21:36:38.184Z,3.40
2017-12-26T21:39:06.344Z,4.27
2017-12-26T21:41:35.256Z,5.43
2017-12-26T21:44:03.411Z,4.93
2017-12-26T21:46:32.525Z,4.23
2017-12-26T21:49:00.920Z,2.87
2017-12-26T21:51:29.083Z,3.73
2017-12-26T21:53:57.540Z,2.63
2017-12-26T21:56:25.877Z,4.20
2017-12-26T21:58:54.334Z,6.53
2017-12-26T22:01:23.033Z,5.57
2017-12-26T22:03:52.168Z,6.23
2017-12-26T22:06:20.575Z,5.70
2017-12-26T22:08:49.048Z,3.03
2017-12-26T22:57:10.265Z,6.83
2017-12-26T22:59:38.637Z,6.57
2017-12-26T23:02:06.978Z,8.87
2017-12-26T23:04:35.439Z,7.23
2017-12-26T23:07:04.362Z,8.43
2017-12-26T23:09:32.843Z,9.77
2017-12-26T23:12:01.389Z,7.43
2017-12-26T23:14:36.125Z,8.83
2017-12-26T23:17:10.675Z,7.63
2017-12-26T23:19:45.291Z,7.20
2017-12-26T23:22:14.562Z,4.43
2017-12-26T23:24:49.172Z,3.77
2017-12-26T23:27:22.956Z,2.93
2017-12-26T23:29:57.724Z,4.57
2017-12-26T23:32:44.533Z,3.50
2017-12-26T23:35:19.221Z,3.67
2017-12-26T23:37:53.240Z,4.07
2017-12-26T23:40:27.248Z,4.30
2017-12-26T23:43:01.850Z,4.47
2017-12-26T23:45:35.750Z,4.23
2017-12-26T23:48:09.810Z,3.97
2017-12-26T23:50:43.842Z,4.10
2017-12-26T23:53:17.780Z,4.50
2017-12-26T23:55:51.689Z,3.10
2017-12-26T23:58:25.676Z,4.10
